Alkol, West Virginia
Current Conditions -  °F | °C
As of 7:54 AM on Monday 24 Nov 2014 (Local Time) from KCRW Reporting Station
Scattered Clouds Scattered Clouds  
Wind Chill: 17°   Ceiling: Unl
Heat Index: 17°   Visibility: 10mi
Dew Point:   Wind: 18mph
Humidity: 58%   Direction: 190°S
Pressure: 29.52"   Gusts: 24mph
Location:  38.16°N, 81.92°W
Report Text: KCRW 241254Z 19016G21KT 10SM SCT055 17/09 A2952 RMK AO2 SLP991 T01720089
Loading
Personal Weather Stations






























Interactive Weather Map New forecast layout! Learn more

10-Day Weather Forecast

Advertisements
Track Severe Weather on mobile